Chester, Canada
Current Conditions -  °F | °C
As of 5:51 AM on Friday 24 Oct 2014 (Local Time) from CYHZ Reporting Station
Rain Showers Rain Showers  
Wind Chill: 54°   Ceiling: 400
Heat Index: 54°   Visibility: 8mi
Dew Point: 52°   Wind: 13mph
Humidity: 94%   Direction: 80°E
Pressure: 29.6"   Gusts: NA
Location:  44.53°N, 64.23°W
Report Text: CYHZ 240851Z 08011KT 8SM -SHRA BKN004 OVC025 12/11 A2960 RMK SF7SC1 SLP026 DENSITY ALT 500FT
Loading
Personal Weather Stations






























Interactive Weather Map
Tropical Storm Tracking
New forecast layout! Learn more

10-Day Weather Forecast

Advertisements
Track Severe Weather on mobile